sensor_id;sensor_type;location;lat;lon;timestamp;pressure;altitude;pressure_sealevel;temperature;humidity
76052;BME280;64751;48.708;9.710;2023-03-26T00:00:51;97152.38;;;8.23;79.36
76052;BME280;64751;48.708;9.710;2023-03-26T00:03:21;97138.50;;;8.17;79.69
76052;BME280;64751;48.708;9.710;2023-03-26T00:06:00;97144.50;;;8.23;80.12
76052;BME280;64751;48.708;9.710;2023-03-26T00:08:28;97143.72;;;8.22;80.20
76052;BME280;64751;48.708;9.710;2023-03-26T00:10:56;97142.69;;;8.18;79.28
76052;BME280;64751;48.708;9.710;2023-03-26T00:13:25;97144.03;;;8.16;79.28
76052;BME280;64751;48.708;9.710;2023-03-26T00:15:52;97138.50;;;8.12;79.49
76052;BME280;64751;48.708;9.710;2023-03-26T00:18:20;97131.44;;;8.07;80.72
76052;BME280;64751;48.708;9.710;2023-03-26T00:20:50;97130.91;;;8.05;79.63
76052;BME280;64751;48.708;9.710;2023-03-26T00:23:17;97136.97;;;8.01;80.74
76052;BME280;64751;48.708;9.710;2023-03-26T00:25:45;97122.56;;;7.88;79.97
76052;BME280;64751;48.708;9.710;2023-03-26T00:28:16;97141.22;;;7.87;79.70
76052;BME280;64751;48.708;9.710;2023-03-26T00:30:48;97136.03;;;7.77;80.08
76052;BME280;64751;48.708;9.710;2023-03-26T00:33:16;97122.94;;;7.62;79.39
76052;BME280;64751;48.708;9.710;2023-03-26T00:35:44;97129.22;;;7.56;79.80
76052;BME280;64751;48.708;9.710;2023-03-26T00:38:13;97132.13;;;7.49;79.51
76052;BME280;64751;48.708;9.710;2023-03-26T00:40:41;97138.22;;;7.40;79.51
76052;BME280;64751;48.708;9.710;2023-03-26T00:43:09;97144.78;;;7.32;80.65
76052;BME280;64751;48.708;9.710;2023-03-26T00:45:45;97143.47;;;7.29;80.27
76052;BME280;64751;48.708;9.710;2023-03-26T00:48:15;97125.63;;;7.11;80.53
76052;BME280;64751;48.708;9.710;2023-03-26T00:50:45;97142.69;;;7.14;80.05
76052;BME280;64751;48.708;9.710;2023-03-26T00:53:12;97137.44;;;7.04;80.13
76052;BME280;64751;48.708;9.710;2023-03-26T00:55:41;97119.06;;;6.89;80.53
76052;BME280;64751;48.708;9.710;2023-03-26T00:58:09;97136.94;;;6.92;80.24
76052;BME280;64751;48.708;9.710;2023-03-26T01:00:41;97138.78;;;6.81;80.08
76052;BME280;64751;48.708;9.710;2023-03-26T01:03:13;97126.44;;;6.77;80.28
76052;BME280;64751;48.708;9.710;2023-03-26T01:05:48;97123.28;;;6.75;79.83
76052;BME280;64751;48.708;9.710;2023-03-26T01:08:25;97130.09;;;6.71;79.96
76052;BME280;64751;48.708;9.710;2023-03-26T01:10:56;97113.28;;;6.62;79.73
76052;BME280;64751;48.708;9.710;2023-03-26T01:13:32;97113.53;;;6.55;79.52
76052;BME280;64751;48.708;9.710;2023-03-26T01:16:02;97104.88;;;6.44;79.91
76052;BME280;64751;48.708;9.710;2023-03-26T01:18:31;97111.72;;;6.45;80.14
76052;BME280;64751;48.708;9.710;2023-03-26T01:21:07;97107.75;;;6.38;78.51
76052;BME280;64751;48.708;9.710;2023-03-26T01:23:43;97105.91;;;6.28;78.87
76052;BME280;64751;48.708;9.710;2023-03-26T01:26:22;97095.94;;;6.20;79.69
76052;BME280;64751;48.708;9.710;2023-03-26T01:28:57;97093.03;;;6.17;79.15
76052;BME280;64751;48.708;9.710;2023-03-26T01:31:30;97095.13;;;6.20;79.48
76052;BME280;64751;48.708;9.710;2023-03-26T01:34:07;97089.06;;;6.14;79.10
76052;BME280;64751;48.708;9.710;2023-03-26T01:36:40;97091.44;;;6.11;78.33
76052;BME280;64751;48.708;9.710;2023-03-26T01:39:15;97079.38;;;6.05;78.91
76052;BME280;64751;48.708;9.710;2023-03-26T01:41:50;97066.53;;;5.98;78.78
76052;BME280;64751;48.708;9.710;2023-03-26T01:44:26;97062.59;;;5.96;78.95
76052;BME280;64751;48.708;9.710;2023-03-26T01:46:58;97056.81;;;5.99;79.55
76052;BME280;64751;48.708;9.710;2023-03-26T01:49:26;97059.97;;;6.01;80.12
76052;BME280;64751;48.708;9.710;2023-03-26T01:51:55;97047.41;;;6.03;79.67
76052;BME280;64751;48.708;9.710;2023-03-26T01:54:25;97050.28;;;5.96;78.52
76052;BME280;64751;48.708;9.710;2023-03-26T01:57:01;97050.75;;;5.88;78.62
76052;BME280;64751;48.708;9.710;2023-03-26T01:59:45;97042.84;;;5.83;78.78
76052;BME280;64751;48.708;9.710;2023-03-26T02:02:24;97040.50;;;5.81;79.35
76052;BME280;64751;48.708;9.710;2023-03-26T02:04:57;97035.25;;;5.81;78.73
76052;BME280;64751;48.708;9.710;2023-03-26T02:07:32;97030.00;;;5.81;79.11
76052;BME280;64751;48.708;9.710;2023-03-26T02:10:07;97029.53;;;5.84;78.51
76052;BME280;64751;48.708;9.710;2023-03-26T02:12:40;97017.69;;;5.77;78.68
76052;BME280;64751;48.708;9.710;2023-03-26T02:15:10;96991.19;;;5.63;79.06
76052;BME280;64751;48.708;9.710;2023-03-26T02:17:38;96992.78;;;5.64;78.93
76052;BME280;64751;48.708;9.710;2023-03-26T02:20:07;96993.31;;;5.71;79.08
76052;BME280;64751;48.708;9.710;2023-03-26T02:22:36;97004.06;;;5.75;78.70
76052;BME280;64751;48.708;9.710;2023-03-26T02:25:08;96999.09;;;5.73;79.38
76052;BME280;64751;48.708;9.710;2023-03-26T02:27:36;96999.06;;;5.68;78.84
76052;BME280;64751;48.708;9.710;2023-03-26T02:30:09;96989.88;;;5.61;79.67
76052;BME280;64751;48.708;9.710;2023-03-26T02:32:37;96986.25;;;5.67;80.65
76052;BME280;64751;48.708;9.710;2023-03-26T02:35:06;96985.47;;;5.76;80.50
76052;BME280;64751;48.708;9.710;2023-03-26T02:37:34;96978.13;;;5.78;79.62
76052;BME280;64751;48.708;9.710;2023-03-26T02:40:11;96972.38;;;5.81;80.09
76052;BME280;64751;48.708;9.710;2023-03-26T02:42:42;96972.91;;;5.83;79.41
76052;BME280;64751;48.708;9.710;2023-03-26T02:45:12;96964.78;;;5.80;79.21
76052;BME280;64751;48.708;9.710;2023-03-26T02:48:18;96978.69;;;5.85;79.12
76052;BME280;64751;48.708;9.710;2023-03-26T02:50:50;96964.56;;;5.87;79.14
76052;BME280;64751;48.708;9.710;2023-03-26T02:53:34;96966.63;;;5.79;79.21
76052;BME280;64751;48.708;9.710;2023-03-26T02:56:21;96969.75;;;5.71;79.21
76052;BME280;64751;48.708;9.710;2023-03-26T02:59:05;96972.34;;;5.66;78.54
76052;BME280;64751;48.708;9.710;2023-03-26T03:01:34;96962.91;;;5.65;79.99
76052;BME280;64751;48.708;9.710;2023-03-26T03:04:02;96950.34;;;5.67;78.59
76052;BME280;64751;48.708;9.710;2023-03-26T03:06:34;96950.59;;;5.61;78.88
76052;BME280;64751;48.708;9.710;2023-03-26T03:09:04;96941.94;;;5.55;78.98
76052;BME280;64751;48.708;9.710;2023-03-26T03:11:34;96934.59;;;5.52;80.03
76052;BME280;64751;48.708;9.710;2023-03-26T03:14:02;96949.53;;;5.57;80.51
76052;BME280;64751;48.708;9.710;2023-03-26T03:16:31;96944.03;;;5.58;79.73
76052;BME280;64751;48.708;9.710;2023-03-26T03:19:05;96929.38;;;5.57;79.47
76052;BME280;64751;48.708;9.710;2023-03-26T03:21:36;96925.44;;;5.55;79.58
76052;BME280;64751;48.708;9.710;2023-03-26T03:24:05;96924.16;;;5.57;79.30
76052;BME280;64751;48.708;9.710;2023-03-26T03:26:36;96914.19;;;5.54;79.85
76052;BME280;64751;48.708;9.710;2023-03-26T03:29:15;96918.41;;;5.60;80.52
76052;BME280;64751;48.708;9.710;2023-03-26T03:31:43;96920.47;;;5.58;79.80
76052;BME280;64751;48.708;9.710;2023-03-26T03:34:26;96923.09;;;5.63;80.66
76052;BME280;64751;48.708;9.710;2023-03-26T03:36:53;96917.34;;;5.66;80.16
76052;BME280;64751;48.708;9.710;2023-03-26T03:39:31;96918.16;;;5.67;80.02
76052;BME280;64751;48.708;9.710;2023-03-26T03:41:58;96910.03;;;5.68;80.35
76052;BME280;64751;48.708;9.710;2023-03-26T03:44:26;96909.22;;;5.73;80.24
76052;BME280;64751;48.708;9.710;2023-03-26T03:46:54;96904.25;;;5.76;80.30
76052;BME280;64751;48.708;9.710;2023-03-26T03:49:22;96900.31;;;5.79;80.33
76052;BME280;64751;48.708;9.710;2023-03-26T03:51:51;96884.38;;;5.80;79.88
76052;BME280;64751;48.708;9.710;2023-03-26T03:54:33;96881.47;;;5.77;79.79
76052;BME280;64751;48.708;9.710;2023-03-26T03:57:09;96873.09;;;5.80;81.11
76052;BME280;64751;48.708;9.710;2023-03-26T03:59:57;96863.69;;;5.84;80.21
76052;BME280;64751;48.708;9.710;2023-03-26T04:02:26;96865.47;;;5.83;81.08
76052;BME280;64751;48.708;9.710;2023-03-26T04:05:03;96865.47;;;5.83;80.47
76052;BME280;64751;48.708;9.710;2023-03-26T04:07:32;96865.47;;;5.83;80.98
76052;BME280;64751;48.708;9.710;2023-03-26T04:10:08;96864.16;;;5.81;81.52
76052;BME280;64751;48.708;9.710;2023-03-26T04:12:59;96859.72;;;5.81;81.29
76052;BME280;64751;48.708;9.710;2023-03-26T04:15:54;96855.81;;;5.84;81.55
76052;BME280;64751;48.708;9.710;2023-03-26T04:18:22;96853.72;;;5.86;81.79
76052;BME280;64751;48.708;9.710;2023-03-26T04:20:52;96839.84;;;5.85;81.40
76052;BME280;64751;48.708;9.710;2023-03-26T04:23:28;96829.34;;;5.85;81.78
76052;BME280;64751;48.708;9.710;2023-03-26T04:26:28;96834.88;;;5.84;81.99
76052;BME280;64751;48.708;9.710;2023-03-26T04:29:05;96829.88;;;5.82;81.46
76052;BME280;64751;48.708;9.710;2023-03-26T04:31:37;96830.94;;;5.87;81.83
76052;BME280;64751;48.708;9.710;2023-03-26T04:34:08;96828.84;;;5.94;81.93
76052;BME280;64751;48.708;9.710;2023-03-26T04:36:48;96819.13;;;5.99;81.96
76052;BME280;64751;48.708;9.710;2023-03-26T04:39:19;96806.53;;;6.01;82.39
76052;BME280;64751;48.708;9.710;2023-03-26T04:42:16;96799.47;;;6.02;81.63
76052;BME280;64751;48.708;9.710;2023-03-26T04:45:03;96785.84;;;6.00;81.25
76052;BME280;64751;48.708;9.710;2023-03-26T04:47:31;96787.44;;;6.01;81.92
76052;BME280;64751;48.708;9.710;2023-03-26T04:50:03;96785.56;;;6.06;82.45
76052;BME280;64751;48.708;9.710;2023-03-26T04:52:32;96776.63;;;6.12;83.01
76052;BME280;64751;48.708;9.710;2023-03-26T04:55:22;96782.38;;;6.19;82.77
76052;BME280;64751;48.708;9.710;2023-03-26T04:57:58;96785.28;;;6.23;83.00
76052;BME280;64751;48.708;9.710;2023-03-26T05:00:48;96794.44;;;6.25;82.34
76052;BME280;64751;48.708;9.710;2023-03-26T05:03:16;96787.63;;;6.29;82.26
76052;BME280;64751;48.708;9.710;2023-03-26T05:05:46;96775.31;;;6.30;82.21
76052;BME280;64751;48.708;9.710;2023-03-26T05:08:15;96765.84;;;6.29;81.86
76052;BME280;64751;48.708;9.710;2023-03-26T05:10:43;96757.47;;;6.27;82.28
76052;BME280;64751;48.708;9.710;2023-03-26T05:13:21;96755.88;;;6.26;82.21
76052;BME280;64751;48.708;9.710;2023-03-26T05:15:52;96753.81;;;6.23;82.24
76052;BME280;64751;48.708;9.710;2023-03-26T05:18:39;96755.88;;;6.26;83.30
76052;BME280;64751;48.708;9.710;2023-03-26T05:21:07;96748.28;;;6.29;82.88
76052;BME280;64751;48.708;9.710;2023-03-26T05:23:35;96742.78;;;6.31;82.39
76052;BME280;64751;48.708;9.710;2023-03-26T05:26:20;96746.19;;;6.31;82.06
76052;BME280;64751;48.708;9.710;2023-03-26T05:28:48;96751.66;;;6.35;82.30
76052;BME280;64751;48.708;9.710;2023-03-26T05:31:45;96760.03;;;6.37;82.89
76052;BME280;64751;48.708;9.710;2023-03-26T05:34:13;96752.19;;;6.37;82.71
76052;BME280;64751;48.708;9.710;2023-03-26T05:36:41;96761.63;;;6.38;83.31
76052;BME280;64751;48.708;9.710;2023-03-26T05:39:27;96728.63;;;6.27;82.97
76052;BME280;64751;48.708;9.710;2023-03-26T05:42:16;96731.19;;;6.42;82.79
76052;BME280;64751;48.708;9.710;2023-03-26T05:45:02;96730.91;;;6.43;82.75
76052;BME280;64751;48.708;9.710;2023-03-26T05:47:33;96733.28;;;6.45;82.93
76052;BME280;64751;48.708;9.710;2023-03-26T05:50:01;96721.19;;;6.49;83.08
76052;BME280;64751;48.708;9.710;2023-03-26T05:52:29;96725.34;;;6.55;83.45
76052;BME280;64751;48.708;9.710;2023-03-26T05:55:28;96724.78;;;6.63;82.92
76052;BME280;64751;48.708;9.710;2023-03-26T05:58:18;96727.34;;;6.73;83.15
76052;BME280;64751;48.708;9.710;2023-03-26T06:01:18;96726.28;;;6.79;83.33
76052;BME280;64751;48.708;9.710;2023-03-26T06:04:04;96706.03;;;6.85;83.02
76052;BME280;64751;48.708;9.710;2023-03-26T06:06:37;96711.00;;;6.86;83.58
76052;BME280;64751;48.708;9.710;2023-03-26T06:09:05;96711.50;;;6.88;83.46
76052;BME280;64751;48.708;9.710;2023-03-26T06:11:33;96718.06;;;6.91;83.44
76052;BME280;64751;48.708;9.710;2023-03-26T06:14:04;96706.22;;;6.93;83.80
76052;BME280;64751;48.708;9.710;2023-03-26T06:16:32;96699.66;;;6.96;83.68
76052;BME280;64751;48.708;9.710;2023-03-26T06:19:20;96697.53;;;6.98;83.81
76052;BME280;64751;48.708;9.710;2023-03-26T06:21:56;96686.25;;;6.97;83.71
76052;BME280;64751;48.708;9.710;2023-03-26T06:24:30;96696.75;;;6.97;84.24
76052;BME280;64751;48.708;9.710;2023-03-26T06:26:58;96688.34;;;7.00;84.37
76052;BME280;64751;48.708;9.710;2023-03-26T06:29:39;96682.56;;;6.98;83.62
76052;BME280;64751;48.708;9.710;2023-03-26T06:32:39;96685.44;;;7.02;83.74
76052;BME280;64751;48.708;9.710;2023-03-26T06:35:13;96675.44;;;7.04;84.71
76052;BME280;64751;48.708;9.710;2023-03-26T06:37:41;96674.88;;;7.07;84.14
76052;BME280;64751;48.708;9.710;2023-03-26T06:40:10;96666.72;;;7.08;83.09
76052;BME280;64751;48.708;9.710;2023-03-26T06:43:04;96657.81;;;7.09;83.15
76052;BME280;64751;48.708;9.710;2023-03-26T06:45:53;96645.19;;;7.11;83.90
76052;BME280;64751;48.708;9.710;2023-03-26T06:48:52;96639.72;;;7.08;83.65
76052;BME280;64751;48.708;9.710;2023-03-26T06:51:47;96647.78;;;7.16;83.85
76052;BME280;64751;48.708;9.710;2023-03-26T06:54:27;96628.06;;;7.19;83.83
76052;BME280;64751;48.708;9.710;2023-03-26T06:57:13;96630.41;;;7.20;84.70
76052;BME280;64751;48.708;9.710;2023-03-26T06:59:41;96633.50;;;7.27;84.20
76052;BME280;64751;48.708;9.710;2023-03-26T07:02:28;96631.59;;;7.33;83.83
76052;BME280;64751;48.708;9.710;2023-03-26T07:05:14;96605.56;;;7.37;84.13
76052;BME280;64751;48.708;9.710;2023-03-26T07:08:01;96608.38;;;7.45;83.91
76052;BME280;64751;48.708;9.710;2023-03-26T07:10:47;96599.66;;;7.50;84.69
76052;BME280;64751;48.708;9.710;2023-03-26T07:13:27;96601.72;;;7.53;83.57
76052;BME280;64751;48.708;9.710;2023-03-26T07:15:54;96608.53;;;7.54;83.96
76052;BME280;64751;48.708;9.710;2023-03-26T07:18:44;96598.03;;;7.54;83.83
76052;BME280;64751;48.708;9.710;2023-03-26T07:21:17;96592.72;;;7.59;83.53
76052;BME280;64751;48.708;9.710;2023-03-26T07:23:47;96579.28;;;7.60;83.49
76052;BME280;64751;48.708;9.710;2023-03-26T07:26:32;96589.25;;;7.63;82.23
76052;BME280;64751;48.708;9.710;2023-03-26T07:29:29;96590.03;;;7.64;83.32
76052;BME280;64751;48.708;9.710;2023-03-26T07:32:17;96561.41;;;7.62;82.27
76052;BME280;64751;48.708;9.710;2023-03-26T07:35:15;96558.22;;;7.65;81.39
76052;BME280;64751;48.708;9.710;2023-03-26T07:38:04;96543.81;;;7.63;81.01
76052;BME280;64751;48.708;9.710;2023-03-26T07:41:09;96550.00;;;7.72;81.35
76052;BME280;64751;48.708;9.710;2023-03-26T07:44:24;96541.84;;;7.73;80.76
76052;BME280;64751;48.708;9.710;2023-03-26T07:47:24;96535.50;;;7.74;81.23
76052;BME280;64751;48.708;9.710;2023-03-26T07:50:16;96524.72;;;7.76;81.21
76052;BME280;64751;48.708;9.710;2023-03-26T07:52:59;96520.25;;;7.76;80.78
76052;BME280;64751;48.708;9.710;2023-03-26T07:55:52;96512.84;;;7.78;81.91
76052;BME280;64751;48.708;9.710;2023-03-26T07:58:45;96512.06;;;7.78;81.64
76052;BME280;64751;48.708;9.710;2023-03-26T08:02:00;96511.78;;;7.61;80.45
76052;BME280;64751;48.708;9.710;2023-03-26T08:04:53;96505.19;;;7.63;81.31
76052;BME280;64751;48.708;9.710;2023-03-26T08:07:55;96505.53;;;7.57;79.93
76052;BME280;64751;48.708;9.710;2023-03-26T08:10:35;96507.81;;;7.63;81.09
76052;BME280;64751;48.708;9.710;2023-03-26T08:13:14;96500.97;;;7.62;80.39
76052;BME280;64751;48.708;9.710;2023-03-26T08:15:48;96519.31;;;7.49;79.98
76052;BME280;64751;48.708;9.710;2023-03-26T08:18:26;96508.22;;;7.52;81.00
76052;BME280;64751;48.708;9.710;2023-03-26T08:20:59;96493.44;;;7.56;80.85
76052;BME280;64751;48.708;9.710;2023-03-26T08:23:35;96481.03;;;7.61;80.11
76052;BME280;64751;48.708;9.710;2023-03-26T08:26:09;96468.75;;;7.57;80.36
76052;BME280;64751;48.708;9.710;2023-03-26T08:28:55;96485.16;;;7.67;80.84
76052;BME280;64751;48.708;9.710;2023-03-26T08:31:31;96488.50;;;7.73;81.55
76052;BME280;64751;48.708;9.710;2023-03-26T08:34:00;96481.47;;;7.68;81.43
76052;BME280;64751;48.708;9.710;2023-03-26T08:36:28;96477.00;;;7.69;81.42
76052;BME280;64751;48.708;9.710;2023-03-26T08:38:57;96482.81;;;7.66;81.47
76052;BME280;64751;48.708;9.710;2023-03-26T08:50:48;96460.09;;;7.75;81.90
76052;BME280;64751;48.708;9.710;2023-03-26T08:53:54;96469.03;;;7.74;83.08
76052;BME280;64751;48.708;9.710;2023-03-26T08:56:38;96471.59;;;7.79;83.48
76052;BME280;64751;48.708;9.710;2023-03-26T08:59:42;96465.00;;;7.81;82.36
76052;BME280;64751;48.708;9.710;2023-03-26T09:02:35;96461.50;;;7.86;84.32
76052;BME280;64751;48.708;9.710;2023-03-26T09:05:41;96449.44;;;7.85;82.16
76052;BME280;64751;48.708;9.710;2023-03-26T09:08:33;96442.56;;;7.89;82.60
76052;BME280;64751;48.708;9.710;2023-03-26T09:11:22;96443.31;;;7.89;83.74
76052;BME280;64751;48.708;9.710;2023-03-26T09:14:18;96446.72;;;7.90;84.21
76052;BME280;64751;48.708;9.710;2023-03-26T09:20:40;96448.63;;;8.03;83.32
76052;BME280;64751;48.708;9.710;2023-03-26T09:26:44;96449.97;;;8.19;82.87
76052;BME280;64751;48.708;9.710;2023-03-26T09:32:55;96463.16;;;8.51;84.03
76052;BME280;64751;48.708;9.710;2023-03-26T09:36:09;96449.63;;;8.71;82.79
76052;BME280;64751;48.708;9.710;2023-03-26T09:38:51;96443.78;;;8.74;81.75
76052;BME280;64751;48.708;9.710;2023-03-26T09:41:29;96453.25;;;8.75;81.15
76052;BME280;64751;48.708;9.710;2023-03-26T09:44:19;96459.31;;;8.90;82.46
76052;BME280;64751;48.708;9.710;2023-03-26T09:46:55;96454.03;;;8.90;82.17
76052;BME280;64751;48.708;9.710;2023-03-26T09:52:45;96445.53;;;9.20;82.20
76052;BME280;64751;48.708;9.710;2023-03-26T09:55:32;96440.75;;;9.35;80.63
76052;BME280;64751;48.708;9.710;2023-03-26T09:58:29;96434.78;;;9.43;80.51
76052;BME280;64751;48.708;9.710;2023-03-26T10:01:06;96431.28;;;9.48;81.39
76052;BME280;64751;48.708;9.710;2023-03-26T10:03:48;96435.84;;;9.56;80.83
76052;BME280;64751;48.708;9.710;2023-03-26T10:06:34;96433.56;;;9.63;77.91
76052;BME280;64751;48.708;9.710;2023-03-26T10:09:19;96434.22;;;9.69;76.06
76052;BME280;64751;48.708;9.710;2023-03-26T10:12:02;96429.94;;;9.73;76.76
76052;BME280;64751;48.708;9.710;2023-03-26T10:14:37;96434.78;;;9.57;76.46
76052;BME280;64751;48.708;9.710;2023-03-26T10:20:18;96417.94;;;9.89;76.00
76052;BME280;64751;48.708;9.710;2023-03-26T10:23:01;96434.00;;;10.14;76.90
76052;BME280;64751;48.708;9.710;2023-03-26T10:25:43;96427.66;;;10.38;76.58
76052;BME280;64751;48.708;9.710;2023-03-26T10:28:28;96431.69;;;10.66;75.93
76052;BME280;64751;48.708;9.710;2023-03-26T10:31:14;96417.34;;;10.89;75.16
76052;BME280;64751;48.708;9.710;2023-03-26T10:33:50;96425.34;;;11.15;74.87
76052;BME280;64751;48.708;9.710;2023-03-26T10:36:27;96413.31;;;11.56;73.58
76052;BME280;64751;48.708;9.710;2023-03-26T10:39:10;96413.00;;;11.66;70.74
76052;BME280;64751;48.708;9.710;2023-03-26T10:41:50;96406.91;;;11.49;70.68
76052;BME280;64751;48.708;9.710;2023-03-26T10:44:35;96419.34;;;11.40;71.04
76052;BME280;64751;48.708;9.710;2023-03-26T10:47:33;96414.84;;;11.40;71.02
76052;BME280;64751;48.708;9.710;2023-03-26T10:52:58;96404.94;;;11.72;69.29
76052;BME280;64751;48.708;9.710;2023-03-26T10:55:31;96406.34;;;11.69;70.39
76052;BME280;64751;48.708;9.710;2023-03-26T10:58:10;96405.66;;;11.63;69.29
76052;BME280;64751;48.708;9.710;2023-03-26T11:00:46;96399.47;;;11.68;70.33
76052;BME280;64751;48.708;9.710;2023-03-26T11:03:30;96397.13;;;11.49;70.02
76052;BME280;64751;48.708;9.710;2023-03-26T11:06:12;96407.03;;;11.35;68.23
76052;BME280;64751;48.708;9.710;2023-03-26T11:08:48;96398.78;;;11.37;70.93
76052;BME280;64751;48.708;9.710;2023-03-26T11:11:22;96403.75;;;11.30;68.65
76052;BME280;64751;48.708;9.710;2023-03-26T11:13:58;96413.25;;;11.39;70.79
76052;BME280;64751;48.708;9.710;2023-03-26T11:16:34;96405.97;;;11.53;71.44
76052;BME280;64751;48.708;9.710;2023-03-26T11:19:09;96401.50;;;11.80;68.64
76052;BME280;64751;48.708;9.710;2023-03-26T11:21:44;96399.81;;;11.92;67.84
76052;BME280;64751;48.708;9.710;2023-03-26T11:24:40;96404.13;;;12.22;67.94
76052;BME280;64751;48.708;9.710;2023-03-26T11:27:16;96398.03;;;12.39;66.80
76052;BME280;64751;48.708;9.710;2023-03-26T11:29:55;96384.16;;;12.33;66.78
76052;BME280;64751;48.708;9.710;2023-03-26T11:32:34;96387.72;;;12.46;66.04
76052;BME280;64751;48.708;9.710;2023-03-26T11:35:12;96388.97;;;12.40;66.02
76052;BME280;64751;48.708;9.710;2023-03-26T11:37:45;96391.31;;;12.33;65.69
76052;BME280;64751;48.708;9.710;2023-03-26T11:40:17;96381.22;;;12.35;65.92
76052;BME280;64751;48.708;9.710;2023-03-26T11:42:53;96391.59;;;12.49;65.98
76052;BME280;64751;48.708;9.710;2023-03-26T11:45:25;96382.63;;;12.32;64.56
76052;BME280;64751;48.708;9.710;2023-03-26T11:47:55;96389.00;;;12.31;64.43
76052;BME280;64751;48.708;9.710;2023-03-26T11:50:26;96381.97;;;12.35;64.45
76052;BME280;64751;48.708;9.710;2023-03-26T11:52:57;96379.22;;;12.23;62.86
76052;BME280;64751;48.708;9.710;2023-03-26T11:55:25;96372.06;;;12.15;64.50
76052;BME280;64751;48.708;9.710;2023-03-26T11:57:56;96374.56;;;12.12;65.52
76052;BME280;64751;48.708;9.710;2023-03-26T12:00:28;96369.88;;;12.09;62.75
76052;BME280;64751;48.708;9.710;2023-03-26T12:02:57;96366.47;;;12.00;61.65
76052;BME280;64751;48.708;9.710;2023-03-26T12:05:28;96369.13;;;12.00;61.98
76052;BME280;64751;48.708;9.710;2023-03-26T12:07:59;96366.66;;;11.95;60.60
76052;BME280;64751;48.708;9.710;2023-03-26T12:10:32;96361.03;;;11.96;63.93
76052;BME280;64751;48.708;9.710;2023-03-26T12:13:27;96369.88;;;12.17;64.41
76052;BME280;64751;48.708;9.710;2023-03-26T12:16:08;96370.66;;;12.18;63.50
76052;BME280;64751;48.708;9.710;2023-03-26T12:18:38;96344.53;;;12.08;61.79
76052;BME280;64751;48.708;9.710;2023-03-26T12:21:09;96351.34;;;12.09;62.37
76052;BME280;64751;48.708;9.710;2023-03-26T12:23:52;96359.31;;;12.09;60.16
76052;BME280;64751;48.708;9.710;2023-03-26T12:26:29;96350.75;;;12.12;61.56
76052;BME280;64751;48.708;9.710;2023-03-26T12:29:05;96347.34;;;12.03;61.49
76052;BME280;64751;48.708;9.710;2023-03-26T12:31:50;96349.53;;;12.01;60.08
76052;BME280;64751;48.708;9.710;2023-03-26T12:34:20;96340.63;;;12.14;59.14
76052;BME280;64751;48.708;9.710;2023-03-26T12:36:51;96340.69;;;12.43;60.59
76052;BME280;64751;48.708;9.710;2023-03-26T12:39:34;96345.50;;;12.50;60.73
76052;BME280;64751;48.708;9.710;2023-03-26T12:42:05;96342.41;;;12.39;59.61
76052;BME280;64751;48.708;9.710;2023-03-26T12:44:43;96325.00;;;12.29;58.88
76052;BME280;64751;48.708;9.710;2023-03-26T12:47:18;96336.56;;;12.16;58.78
76052;BME280;64751;48.708;9.710;2023-03-26T12:49:48;96333.16;;;12.07;58.83
76052;BME280;64751;48.708;9.710;2023-03-26T12:52:44;96333.16;;;12.07;59.48
76052;BME280;64751;48.708;9.710;2023-03-26T12:55:35;96326.91;;;12.12;59.26
76052;BME280;64751;48.708;9.710;2023-03-26T12:58:15;96325.66;;;12.18;58.80
76052;BME280;64751;48.708;9.710;2023-03-26T13:00:53;96324.22;;;12.29;59.47
76052;BME280;64751;48.708;9.710;2023-03-26T13:03:41;96309.72;;;12.35;57.53
76052;BME280;64751;48.708;9.710;2023-03-26T13:06:25;96308.78;;;12.31;55.53
76052;BME280;64751;48.708;9.710;2023-03-26T13:09:19;96310.69;;;12.30;55.53
76052;BME280;64751;48.708;9.710;2023-03-26T13:12:04;96280.03;;;12.21;54.01
76052;BME280;64751;48.708;9.710;2023-03-26T13:14:46;96297.56;;;12.34;53.90
76052;BME280;64751;48.708;9.710;2023-03-26T13:17:22;96296.50;;;12.35;55.05
76052;BME280;64751;48.708;9.710;2023-03-26T13:20:00;96296.50;;;12.35;53.00
76052;BME280;64751;48.708;9.710;2023-03-26T13:22:43;96288.34;;;12.40;53.78
76052;BME280;64751;48.708;9.710;2023-03-26T13:25:22;96282.03;;;12.32;53.40
76052;BME280;64751;48.708;9.710;2023-03-26T13:28:02;96272.69;;;12.26;53.62
76052;BME280;64751;48.708;9.710;2023-03-26T13:30:36;96276.72;;;12.32;53.86
76052;BME280;64751;48.708;9.710;2023-03-26T13:33:21;96272.66;;;12.35;52.41
76052;BME280;64751;48.708;9.710;2023-03-26T13:35:55;96274.50;;;12.43;51.48
76052;BME280;64751;48.708;9.710;2023-03-26T13:38:35;96274.31;;;12.48;51.92
76052;BME280;64751;48.708;9.710;2023-03-26T13:41:15;96271.06;;;12.43;51.25
76052;BME280;64751;48.708;9.710;2023-03-26T13:43:54;96270.47;;;12.37;49.81
76052;BME280;64751;48.708;9.710;2023-03-26T13:46:29;96257.59;;;12.27;50.88
76052;BME280;64751;48.708;9.710;2023-03-26T13:49:01;96250.47;;;12.19;51.06
76052;BME280;64751;48.708;9.710;2023-03-26T13:51:36;96255.09;;;12.30;52.15
76052;BME280;64751;48.708;9.710;2023-03-26T13:54:15;96246.50;;;12.33;52.07
76052;BME280;64751;48.708;9.710;2023-03-26T13:56:46;96252.41;;;12.39;50.99
76052;BME280;64751;48.708;9.710;2023-03-26T13:59:21;96234.59;;;12.48;48.06
76052;BME280;64751;48.708;9.710;2023-03-26T14:01:56;96234.16;;;12.46;48.20
76052;BME280;64751;48.708;9.710;2023-03-26T14:04:27;96229.75;;;12.50;47.35
76052;BME280;64751;48.708;9.710;2023-03-26T14:07:02;96229.75;;;12.50;46.26
76052;BME280;64751;48.708;9.710;2023-03-26T14:09:37;96222.38;;;12.64;46.86
76052;BME280;64751;48.708;9.710;2023-03-26T14:12:31;96221.13;;;12.82;46.40
76052;BME280;64751;48.708;9.710;2023-03-26T14:15:04;96219.19;;;12.91;46.65
76052;BME280;64751;48.708;9.710;2023-03-26T14:17:36;96214.75;;;13.04;46.22
76052;BME280;64751;48.708;9.710;2023-03-26T14:20:22;96207.09;;;13.11;44.60
76052;BME280;64751;48.708;9.710;2023-03-26T14:23:03;96200.03;;;13.15;46.22
76052;BME280;64751;48.708;9.710;2023-03-26T14:25:47;96204.06;;;13.33;46.22
76052;BME280;64751;48.708;9.710;2023-03-26T14:28:46;96188.16;;;13.33;44.82
76052;BME280;64751;48.708;9.710;2023-03-26T14:31:20;96202.66;;;13.36;45.90
76052;BME280;64751;48.708;9.710;2023-03-26T14:34:10;96203.56;;;13.19;46.60